createdAt,value
2019-03-31T00:00:37.228Z,17.67
2019-03-31T00:03:09.538Z,16.80
2019-03-31T00:05:41.698Z,17.37
2019-03-31T00:08:13.674Z,17.43
2019-03-31T00:10:45.796Z,17.40
2019-03-31T00:13:17.744Z,17.80
2019-03-31T00:15:49.722Z,17.60
2019-03-31T00:18:21.625Z,17.00
2019-03-31T00:20:53.582Z,15.63
2019-03-31T00:23:25.555Z,15.57
2019-03-31T00:25:57.541Z,16.13
2019-03-31T00:28:29.601Z,16.70
2019-03-31T00:31:01.836Z,16.63
2019-03-31T00:33:34.094Z,17.47
2019-03-31T00:36:06.187Z,16.40
2019-03-31T00:38:38.450Z,15.87
2019-03-31T00:41:10.538Z,15.47
2019-03-31T00:43:42.422Z,16.13
2019-03-31T00:46:14.407Z,16.63
2019-03-31T00:48:46.631Z,16.10
2019-03-31T00:51:18.521Z,16.37
2019-03-31T00:53:51.141Z,16.83
2019-03-31T00:56:23.236Z,17.30
2019-03-31T00:58:56.236Z,15.83
2019-03-31T01:01:46.145Z,16.90
2019-03-31T01:04:23.412Z,16.13
2019-03-31T01:06:56.772Z,16.90
2019-03-31T01:09:34.372Z,16.17
2019-03-31T01:12:07.440Z,16.10
2019-03-31T01:14:40.247Z,16.13
2019-03-31T01:17:13.057Z,16.23
2019-03-31T01:19:45.040Z,16.47
2019-03-31T01:22:17.096Z,16.10
2019-03-31T01:24:49.148Z,15.23
2019-03-31T01:27:21.487Z,16.93
2019-03-31T01:29:54.316Z,16.03
2019-03-31T01:32:26.683Z,15.80
2019-03-31T01:34:58.808Z,16.03
2019-03-31T01:37:30.884Z,16.63
2019-03-31T01:40:03.232Z,16.40
2019-03-31T01:42:35.607Z,16.17
2019-03-31T01:45:08.269Z,15.60
2019-03-31T01:47:40.395Z,15.90
2019-03-31T01:50:14.856Z,16.83
2019-03-31T01:52:46.824Z,15.70
2019-03-31T01:55:19.189Z,15.83
2019-03-31T01:57:51.212Z,15.40
2019-03-31T02:00:34.239Z,15.70
2019-03-31T02:03:06.707Z,15.77
2019-03-31T02:05:38.834Z,15.20
2019-03-31T02:08:11.033Z,14.60
2019-03-31T02:10:43.090Z,14.67
2019-03-31T02:13:15.452Z,15.73
2019-03-31T02:15:47.615Z,15.43
2019-03-31T02:18:19.995Z,16.10
2019-03-31T02:20:52.136Z,16.13
2019-03-31T02:23:24.409Z,14.97
2019-03-31T02:25:56.498Z,16.10
2019-03-31T02:28:28.657Z,15.40
2019-03-31T02:31:01.355Z,16.47
2019-03-31T02:33:33.315Z,15.57
2019-03-31T02:36:05.384Z,15.83
2019-03-31T02:38:37.294Z,16.70
2019-03-31T02:41:09.591Z,18.17
2019-03-31T02:43:41.786Z,17.70
2019-03-31T02:46:13.879Z,17.33
2019-03-31T02:48:45.851Z,16.53
2019-03-31T02:51:18.259Z,14.97
2019-03-31T02:53:50.720Z,15.53
2019-03-31T02:56:23.724Z,16.27
2019-03-31T02:58:58.929Z,16.67
2019-03-31T03:01:34.252Z,15.33
2019-03-31T03:04:08.120Z,15.73
2019-03-31T03:06:42.736Z,16.20
2019-03-31T03:09:16.045Z,15.60
2019-03-31T03:11:49.490Z,16.70
2019-03-31T03:14:24.242Z,15.87
2019-03-31T03:16:56.388Z,16.00
2019-03-31T03:19:28.360Z,15.97
2019-03-31T03:22:00.369Z,16.23
2019-03-31T03:24:32.546Z,16.97
2019-03-31T03:27:05.419Z,21.77
2019-03-31T03:29:37.706Z,17.37
2019-03-31T03:32:09.616Z,17.03
2019-03-31T03:34:41.833Z,17.73
2019-03-31T03:37:13.907Z,15.77
2019-03-31T03:39:46.584Z,17.10
2019-03-31T03:42:18.477Z,16.20
2019-03-31T03:44:50.559Z,15.97
2019-03-31T03:47:22.777Z,16.37
2019-03-31T03:49:54.788Z,16.10
2019-03-31T03:52:27.122Z,16.40
2019-03-31T03:54:59.746Z,16.27
2019-03-31T03:57:31.732Z,16.27
2019-03-31T04:00:04.477Z,15.20
2019-03-31T04:02:36.470Z,15.50
2019-03-31T04:05:08.693Z,16.23
2019-03-31T04:07:41.058Z,16.27
2019-03-31T04:11:09.929Z,16.13
2019-03-31T04:13:41.998Z,15.70
2019-03-31T04:16:14.075Z,16.10
2019-03-31T04:18:46.208Z,16.27
2019-03-31T04:21:18.605Z,16.30
2019-03-31T04:23:50.677Z,15.83
2019-03-31T04:26:22.802Z,16.47
2019-03-31T04:28:54.946Z,16.20
2019-03-31T04:31:27.051Z,16.97
2019-03-31T04:33:59.115Z,15.83
2019-03-31T04:36:31.100Z,15.43
2019-03-31T04:39:04.690Z,15.63
2019-03-31T04:41:37.007Z,16.10
2019-03-31T04:44:09.354Z,14.53
2019-03-31T04:46:41.573Z,15.30
2019-03-31T04:49:13.485Z,15.43
2019-03-31T04:51:45.390Z,16.67
2019-03-31T04:54:17.375Z,15.63
2019-03-31T04:56:49.362Z,15.73
2019-03-31T04:59:21.540Z,15.33
2019-03-31T05:01:53.419Z,15.70
2019-03-31T05:04:26.230Z,16.27
2019-03-31T05:06:58.371Z,17.27
2019-03-31T05:09:30.266Z,16.57
2019-03-31T05:12:02.613Z,14.20
2019-03-31T05:14:34.783Z,14.10
2019-03-31T05:17:06.938Z,14.60
2019-03-31T05:19:39.205Z,15.80
2019-03-31T05:22:11.465Z,15.90
2019-03-31T05:24:43.378Z,14.73
2019-03-31T05:27:16.008Z,16.30
2019-03-31T05:29:48.868Z,14.87
2019-03-31T05:32:20.803Z,15.10
2019-03-31T05:34:52.778Z,15.63
2019-03-31T05:37:24.852Z,15.53
2019-03-31T05:39:57.174Z,15.80
2019-03-31T05:42:29.083Z,15.77
2019-03-31T05:45:00.982Z,15.77
2019-03-31T05:47:32.885Z,14.60
2019-03-31T05:50:05.329Z,15.33
2019-03-31T05:52:37.205Z,14.77
2019-03-31T05:55:09.657Z,15.57
2019-03-31T05:57:41.629Z,15.33
2019-03-31T06:00:15.241Z,15.33
2019-03-31T06:02:47.545Z,15.40
2019-03-31T06:05:19.499Z,15.60
2019-03-31T06:07:51.483Z,15.73
2019-03-31T06:10:23.473Z,16.80
2019-03-31T06:12:55.927Z,15.57
2019-03-31T06:15:27.974Z,15.23
2019-03-31T06:17:59.947Z,15.53
2019-03-31T06:20:32.386Z,15.17
2019-03-31T06:23:04.896Z,15.60
2019-03-31T06:25:36.993Z,15.17
2019-03-31T06:28:09.109Z,15.83
2019-03-31T06:30:41.082Z,15.90
2019-03-31T06:33:13.052Z,15.13
2019-03-31T06:35:45.250Z,16.80
2019-03-31T06:38:17.181Z,17.60
2019-03-31T06:40:52.187Z,16.27
2019-03-31T06:43:24.224Z,16.90
2019-03-31T06:45:56.221Z,16.47
2019-03-31T06:48:28.187Z,15.97
2019-03-31T06:51:00.204Z,15.70
2019-03-31T06:53:32.475Z,15.73
2019-03-31T06:56:04.458Z,16.03
2019-03-31T06:58:36.541Z,16.30
2019-03-31T07:01:08.513Z,15.27
2019-03-31T07:03:40.755Z,15.30
2019-03-31T07:06:12.745Z,15.87
2019-03-31T07:08:44.755Z,15.30
2019-03-31T07:11:17.071Z,16.40
2019-03-31T07:13:49.124Z,15.97
2019-03-31T07:16:21.053Z,16.43
2019-03-31T07:18:53.307Z,15.47
2019-03-31T07:21:25.347Z,15.03
2019-03-31T07:23:57.359Z,16.40
2019-03-31T07:26:29.229Z,14.93
2019-03-31T07:29:01.242Z,15.70
2019-03-31T07:31:33.318Z,14.47
2019-03-31T07:34:05.373Z,14.50
2019-03-31T07:36:37.583Z,15.23
2019-03-31T07:39:10.068Z,14.77
2019-03-31T07:41:42.274Z,14.13
2019-03-31T07:44:15.418Z,14.87
2019-03-31T07:46:47.610Z,15.43
2019-03-31T07:49:19.530Z,15.53
2019-03-31T07:51:51.534Z,15.98
2019-03-31T07:54:23.648Z,15.55
2019-03-31T07:56:55.831Z,16.45
2019-03-31T07:59:27.770Z,16.10
2019-03-31T08:01:59.743Z,16.15
2019-03-31T08:04:31.928Z,16.02
2019-03-31T08:07:03.864Z,15.03
2019-03-31T08:09:35.966Z,16.62
2019-03-31T08:12:08.067Z,15.58
2019-03-31T08:14:39.984Z,15.85
2019-03-31T08:17:12.744Z,16.23
2019-03-31T08:19:44.668Z,15.78
2019-03-31T08:22:16.825Z,15.70
2019-03-31T08:24:48.855Z,15.83
2019-03-31T08:27:20.924Z,16.55
2019-03-31T08:30:00.520Z,17.10
2019-03-31T08:32:28.605Z,17.30
2019-03-31T08:35:00.663Z,18.82
2019-03-31T08:37:32.679Z,19.25
2019-03-31T08:40:05.062Z,17.92
2019-03-31T08:42:37.090Z,18.17
2019-03-31T08:45:10.185Z,18.05
2019-03-31T08:47:42.256Z,18.62
2019-03-31T08:50:16.118Z,17.12
2019-03-31T08:52:48.332Z,17.23
2019-03-31T08:55:20.367Z,16.70
2019-03-31T08:57:52.680Z,16.85
2019-03-31T09:00:43.672Z,17.15
2019-03-31T09:03:15.679Z,18.32
2019-03-31T09:06:01.110Z,18.42
2019-03-31T09:08:21.304Z,17.92
2019-03-31T09:10:53.731Z,19.35
2019-03-31T09:13:25.630Z,19.00
2019-03-31T09:15:58.080Z,19.05
2019-03-31T09:18:30.457Z,20.43
2019-03-31T09:21:02.527Z,20.88
2019-03-31T09:23:34.538Z,20.82
2019-03-31T09:26:09.440Z,20.72
2019-03-31T09:28:40.820Z,20.77
2019-03-31T09:31:12.892Z,20.80
2019-03-31T09:33:45.001Z,21.93
2019-03-31T09:36:17.112Z,22.98
2019-03-31T09:38:49.110Z,24.40
2019-03-31T09:41:21.395Z,24.32
2019-03-31T09:43:53.479Z,23.92
2019-03-31T09:46:25.812Z,24.57
2019-03-31T09:48:57.726Z,26.52
2019-03-31T09:51:29.629Z,26.20
2019-03-31T09:54:01.703Z,26.82
2019-03-31T09:56:33.881Z,26.60
2019-03-31T09:59:06.959Z,27.05
2019-03-31T10:01:39.252Z,28.40
2019-03-31T10:04:11.685Z,28.67
2019-03-31T10:06:44.442Z,33.70
2019-03-31T10:09:17.287Z,31.37
2019-03-31T10:11:49.794Z,33.25
2019-03-31T10:14:22.138Z,30.43
2019-03-31T10:16:54.067Z,33.98
2019-03-31T10:19:26.013Z,34.25
2019-03-31T10:21:57.987Z,35.30
2019-03-31T10:24:30.021Z,42.27
2019-03-31T10:27:03.248Z,42.43
2019-03-31T10:29:36.020Z,46.85
2019-03-31T10:32:08.503Z,41.30
2019-03-31T10:34:40.412Z,42.48
2019-03-31T10:37:12.405Z,44.03
2019-03-31T10:39:44.810Z,40.35
2019-03-31T10:42:16.878Z,43.92
2019-03-31T10:44:49.195Z,44.90
2019-03-31T10:47:21.218Z,42.40
2019-03-31T10:49:53.404Z,40.98
2019-03-31T10:52:25.491Z,40.45
2019-03-31T10:54:58.182Z,43.13
2019-03-31T10:57:30.272Z,41.40
2019-03-31T11:00:02.358Z,43.73
2019-03-31T11:02:34.772Z,43.02
2019-03-31T11:05:08.387Z,44.88
2019-03-31T11:07:40.765Z,43.45
2019-03-31T11:10:13.249Z,42.10
2019-03-31T11:12:45.294Z,44.33
2019-03-31T11:15:17.648Z,43.13
2019-03-31T11:17:50.472Z,48.52
2019-03-31T11:20:22.919Z,58.20
2019-03-31T11:23:02.487Z,44.75
2019-03-31T11:25:34.583Z,58.68
2019-03-31T11:28:07.078Z,46.73
2019-03-31T11:30:39.014Z,47.15
2019-03-31T11:33:11.344Z,72.53
2019-03-31T11:35:43.440Z,54.97
2019-03-31T11:38:15.356Z,46.47
2019-03-31T11:40:47.766Z,54.07
2019-03-31T11:43:20.121Z,45.50
2019-03-31T11:45:52.275Z,43.77
2019-03-31T11:48:24.264Z,44.30
2019-03-31T11:50:56.345Z,42.63
2019-03-31T11:53:28.271Z,44.20
2019-03-31T11:56:00.382Z,44.80
2019-03-31T11:58:32.576Z,44.20
2019-03-31T12:01:04.547Z,42.73
2019-03-31T12:03:36.555Z,42.07
2019-03-31T12:06:11.246Z,41.50
2019-03-31T12:08:42.363Z,43.13
2019-03-31T12:11:14.848Z,40.97
2019-03-31T12:13:46.930Z,38.00
2019-03-31T12:16:19.006Z,39.87
2019-03-31T12:18:50.919Z,41.10
2019-03-31T12:21:22.920Z,39.97
2019-03-31T12:23:55.066Z,37.90
2019-03-31T12:26:27.060Z,36.67
2019-03-31T12:28:58.978Z,36.90
2019-03-31T12:31:31.549Z,37.30
2019-03-31T12:34:04.198Z,36.37
2019-03-31T12:36:36.608Z,34.70
2019-03-31T12:39:09.923Z,34.70
2019-03-31T12:41:41.931Z,34.83
2019-03-31T12:44:14.299Z,34.93
2019-03-31T12:46:46.569Z,34.03
2019-03-31T12:49:18.618Z,31.53
2019-03-31T12:51:50.647Z,32.83
2019-03-31T12:54:23.090Z,31.10
2019-03-31T12:56:55.114Z,32.77
2019-03-31T12:59:27.708Z,32.37
2019-03-31T13:01:59.932Z,48.63
2019-03-31T13:04:32.291Z,34.73
2019-03-31T13:07:04.649Z,33.70
2019-03-31T13:09:37.011Z,31.17
2019-03-31T13:12:09.110Z,32.67
2019-03-31T13:14:41.385Z,32.40
2019-03-31T13:17:13.303Z,30.93
2019-03-31T13:19:45.880Z,29.80
2019-03-31T13:22:18.160Z,28.73
2019-03-31T13:24:50.538Z,28.77
2019-03-31T13:27:22.714Z,28.87
2019-03-31T13:29:54.671Z,28.70
2019-03-31T13:32:26.690Z,26.30
2019-03-31T13:34:58.824Z,28.37
2019-03-31T13:37:30.719Z,26.97
2019-03-31T13:40:03.031Z,26.87
2019-03-31T13:42:35.384Z,26.37
2019-03-31T13:45:07.920Z,25.43
2019-03-31T13:47:40.342Z,22.87
2019-03-31T13:50:13.299Z,23.13
2019-03-31T13:52:45.311Z,22.87
2019-03-31T13:55:17.510Z,22.47
2019-03-31T13:57:50.437Z,23.60
2019-03-31T14:00:45.906Z,22.23
2019-03-31T14:03:17.928Z,21.00
2019-03-31T14:05:49.937Z,21.97
2019-03-31T14:08:25.885Z,23.03
2019-03-31T14:10:55.812Z,20.67
2019-03-31T14:13:28.138Z,21.73
2019-03-31T14:16:00.062Z,20.07
2019-03-31T14:18:31.983Z,20.23
2019-03-31T14:21:04.050Z,20.73
2019-03-31T14:23:36.368Z,21.20
2019-03-31T14:26:08.511Z,20.03
2019-03-31T14:28:40.479Z,19.60
2019-03-31T14:31:12.629Z,19.73
2019-03-31T14:33:44.756Z,20.53
2019-03-31T14:36:16.924Z,20.30
2019-03-31T14:38:49.032Z,19.20
2019-03-31T14:41:21.030Z,19.40
2019-03-31T14:43:53.230Z,20.53
2019-03-31T14:46:25.312Z,18.83
2019-03-31T14:48:57.314Z,19.67
2019-03-31T14:51:29.299Z,20.20
2019-03-31T14:54:01.301Z,19.80
2019-03-31T14:56:33.320Z,19.03
2019-03-31T14:59:05.472Z,19.20
2019-03-31T15:01:37.578Z,19.90
2019-03-31T15:04:09.584Z,19.40
2019-03-31T15:06:41.952Z,19.90
2019-03-31T15:09:14.402Z,23.50
2019-03-31T15:11:46.676Z,21.80
2019-03-31T15:14:19.047Z,20.20
2019-03-31T15:16:51.382Z,18.00
2019-03-31T15:19:23.462Z,18.93
2019-03-31T15:21:55.539Z,18.53
2019-03-31T15:24:27.537Z,18.33
2019-03-31T15:26:59.451Z,19.77
2019-03-31T15:29:31.493Z,19.47
2019-03-31T15:32:03.583Z,18.47
2019-03-31T15:34:35.776Z,24.97
2019-03-31T15:37:07.998Z,26.27
2019-03-31T15:39:40.095Z,27.00
2019-03-31T15:42:12.232Z,29.57
2019-03-31T15:44:44.425Z,20.87
2019-03-31T15:47:16.515Z,21.17
2019-03-31T15:49:48.509Z,20.30
2019-03-31T15:52:20.466Z,20.77
2019-03-31T15:54:52.588Z,19.20
2019-03-31T15:57:24.872Z,18.93
2019-03-31T15:59:56.973Z,21.17
2019-03-31T16:02:29.576Z,23.23
2019-03-31T16:05:01.507Z,18.93
2019-03-31T16:07:33.555Z,17.97
2019-03-31T16:10:05.725Z,18.30
2019-03-31T16:12:37.011Z,20.53
2019-03-31T16:15:09.290Z,19.90
2019-03-31T16:17:40.512Z,22.40
2019-03-31T16:20:12.453Z,19.47
2019-03-31T16:22:44.525Z,24.27
2019-03-31T16:25:22.139Z,20.33
2019-03-31T16:27:53.835Z,17.97
2019-03-31T16:30:25.092Z,21.63
2019-03-31T16:32:56.391Z,19.53
2019-03-31T16:35:27.515Z,20.13
2019-03-31T16:37:58.736Z,18.47
2019-03-31T16:40:30.089Z,19.13
2019-03-31T16:43:01.282Z,17.73
2019-03-31T16:45:32.480Z,23.17
2019-03-31T16:48:04.067Z,22.27
2019-03-31T16:50:35.335Z,23.67
2019-03-31T16:53:06.892Z,20.53
2019-03-31T16:55:38.206Z,20.50
2019-03-31T16:58:09.716Z,18.13
2019-03-31T17:00:41.098Z,17.67
2019-03-31T17:03:12.469Z,17.80
2019-03-31T17:05:43.763Z,15.80
2019-03-31T17:08:15.601Z,14.63
2019-03-31T17:10:46.963Z,15.00
2019-03-31T17:13:18.578Z,15.07
2019-03-31T17:15:50.141Z,15.40
2019-03-31T17:18:21.426Z,17.70
2019-03-31T17:20:52.748Z,15.03
2019-03-31T17:23:23.994Z,14.23
2019-03-31T17:25:55.733Z,14.10
2019-03-31T17:28:27.266Z,14.80
2019-03-31T17:30:59.551Z,14.90
2019-03-31T17:33:30.916Z,14.40
2019-03-31T17:36:02.267Z,14.27
2019-03-31T17:38:33.402Z,12.27
2019-03-31T17:41:04.684Z,13.07
2019-03-31T17:43:36.135Z,12.00
2019-03-31T17:46:07.427Z,12.40
2019-03-31T17:48:38.673Z,14.50
2019-03-31T17:51:10.042Z,14.83
2019-03-31T17:53:41.139Z,13.37
2019-03-31T17:56:12.426Z,20.50
2019-03-31T17:58:43.669Z,18.30
2019-03-31T18:01:14.865Z,14.73
2019-03-31T18:03:46.053Z,14.27
2019-03-31T18:06:17.233Z,14.13
2019-03-31T18:08:48.430Z,14.17
2019-03-31T18:11:19.692Z,12.53
2019-03-31T18:13:50.828Z,12.53
2019-03-31T18:16:21.931Z,15.37
2019-03-31T18:18:53.603Z,13.53
2019-03-31T18:21:27.196Z,11.83
2019-03-31T18:23:57.839Z,11.43
2019-03-31T18:26:29.207Z,11.30
2019-03-31T18:29:00.428Z,12.17
2019-03-31T18:31:31.644Z,12.07
2019-03-31T18:34:02.795Z,11.47
2019-03-31T18:36:36.967Z,11.30
2019-03-31T18:39:08.668Z,11.17
2019-03-31T18:41:39.787Z,9.63
2019-03-31T18:44:11.286Z,10.60
2019-03-31T18:46:42.482Z,10.83
2019-03-31T18:49:13.974Z,10.57
2019-03-31T18:51:45.268Z,10.03
2019-03-31T18:54:23.438Z,9.50
2019-03-31T18:57:09.982Z,9.60
2019-03-31T18:59:59.342Z,10.33
2019-03-31T19:02:47.185Z,9.77
2019-03-31T19:05:36.094Z,9.27
2019-03-31T19:08:25.498Z,8.97
2019-03-31T19:11:21.649Z,8.10
2019-03-31T19:14:11.782Z,8.70
2019-03-31T19:16:58.925Z,7.87
2019-03-31T19:19:44.567Z,8.80
2019-03-31T19:22:23.843Z,7.70
2019-03-31T19:25:13.853Z,8.43
2019-03-31T19:28:03.344Z,7.93
2019-03-31T19:30:52.623Z,7.93
2019-03-31T19:33:31.869Z,8.57
2019-03-31T19:36:24.978Z,8.73
2019-03-31T19:39:17.956Z,8.73
2019-03-31T19:42:10.939Z,9.13
2019-03-31T19:45:00.388Z,8.60
2019-03-31T19:47:52.384Z,8.30
2019-03-31T19:50:51.828Z,30.07
2019-03-31T19:53:41.901Z,20.70
2019-03-31T19:56:38.109Z,35.40
2019-03-31T19:59:43.542Z,12.37
2019-03-31T20:02:33.593Z,13.83
2019-03-31T20:05:32.738Z,18.00
2019-03-31T20:08:25.458Z,14.83
2019-03-31T20:11:07.445Z,41.87
2019-03-31T20:13:56.249Z,21.57
2019-03-31T20:16:44.739Z,12.40
2019-03-31T20:19:33.855Z,10.53
2019-03-31T20:22:13.568Z,14.83
2019-03-31T20:25:03.138Z,14.93
2019-03-31T20:27:49.623Z,13.27
2019-03-31T20:30:31.873Z,12.27
2019-03-31T20:33:28.078Z,18.20
2019-03-31T20:36:18.536Z,9.53
2019-03-31T20:38:58.414Z,9.27
2019-03-31T20:41:57.728Z,10.13
2019-03-31T20:44:28.811Z,9.07
2019-03-31T20:47:00.078Z,10.17
2019-03-31T20:49:31.512Z,9.23
2019-03-31T20:52:02.774Z,9.77
2019-03-31T20:54:33.967Z,10.23
2019-03-31T20:57:05.189Z,9.20
2019-03-31T20:59:36.344Z,10.20
2019-03-31T21:02:07.837Z,9.23
2019-03-31T21:04:39.212Z,9.73
2019-03-31T21:07:10.327Z,9.30
2019-03-31T21:09:45.169Z,8.73
2019-03-31T21:12:14.678Z,9.70
2019-03-31T21:14:45.854Z,8.87
2019-03-31T21:17:17.092Z,8.97
2019-03-31T21:19:48.285Z,9.77
2019-03-31T21:22:19.461Z,8.83
2019-03-31T21:24:51.054Z,9.90
2019-03-31T21:27:22.157Z,8.83
2019-03-31T21:29:53.323Z,8.63
2019-03-31T21:32:24.458Z,8.83
2019-03-31T21:34:55.584Z,8.80
2019-03-31T21:37:26.859Z,8.50
2019-03-31T21:39:57.980Z,9.27
2019-03-31T21:42:29.227Z,9.73
2019-03-31T21:45:00.298Z,9.53
2019-03-31T21:47:31.814Z,9.80
2019-03-31T21:50:03.010Z,9.87
2019-03-31T21:52:34.098Z,9.47
2019-03-31T21:55:05.489Z,9.43
2019-03-31T21:57:36.733Z,10.13
2019-03-31T22:00:09.947Z,9.83
2019-03-31T22:02:41.303Z,10.50
2019-03-31T22:05:13.131Z,9.60
2019-03-31T22:07:44.362Z,9.10
2019-03-31T22:10:15.680Z,9.13
2019-03-31T22:12:47.067Z,9.23
2019-03-31T22:15:18.335Z,8.80
2019-03-31T22:17:49.508Z,9.13
2019-03-31T22:20:20.760Z,8.17
2019-03-31T22:22:51.979Z,8.70
2019-03-31T22:25:23.485Z,8.07
2019-03-31T22:27:54.726Z,8.37
2019-03-31T22:30:25.884Z,8.43
2019-03-31T22:32:57.086Z,8.40
2019-03-31T22:35:28.778Z,8.50
2019-03-31T22:38:02.415Z,7.73
2019-03-31T22:40:32.853Z,8.63
2019-03-31T22:43:07.601Z,7.70
2019-03-31T22:45:37.121Z,8.37
2019-03-31T22:48:08.649Z,8.00
2019-03-31T22:50:40.158Z,8.30
2019-03-31T22:53:11.269Z,8.87
2019-03-31T22:55:42.376Z,8.67
2019-03-31T22:58:13.469Z,8.70
2019-03-31T23:00:44.878Z,9.00
2019-03-31T23:03:15.956Z,9.00
2019-03-31T23:05:47.163Z,7.53
2019-03-31T23:08:18.422Z,7.40
2019-03-31T23:10:49.592Z,8.27
2019-03-31T23:13:21.107Z,7.70
2019-03-31T23:15:52.228Z,7.40
2019-03-31T23:18:23.471Z,7.67
2019-03-31T23:20:54.737Z,7.23
2019-03-31T23:23:25.958Z,6.93
2019-03-31T23:25:57.045Z,7.40
2019-03-31T23:28:28.878Z,6.90
2019-03-31T23:31:03.425Z,7.80
2019-03-31T23:33:32.874Z,8.43
2019-03-31T23:36:04.023Z,7.70
2019-03-31T23:38:35.194Z,7.57
2019-03-31T23:41:06.683Z,8.33
2019-03-31T23:43:37.857Z,8.73
2019-03-31T23:46:09.047Z,8.17
2019-03-31T23:48:40.630Z,7.83
2019-03-31T23:51:12.182Z,7.63
2019-03-31T23:53:43.260Z,7.57
2019-03-31T23:56:14.335Z,6.20
2019-03-31T23:58:45.790Z,6.10
